www.nordhorn-wetter.com
Wetterdaten: aktuell Mittwoch, 06.05.2026 23:43
Datum Zeit Temp. A. BodenT -5cm Temp +10cm Extra Temp Feuchte A. BlattFeuchte Bod.Feu -5cm Luftdruck Regen Wind Richtung Richtung Sonnenschein ET UV Solar Taupunkt Windböen Empfang
06.05.2026 23:43 9,3 °C 12,8 °C 8,9 °C 11,8 °C 85 % 0 lf 12 cb 1010,8 hPa 0,0 mm 4,6 km/h (1 Bft) NW 323 ° 0 min 0,000 mm 0,0 UV-I 0 W/m² 6,9 °C 6,4 km/h (2 Bft) 100,00 %
06.05.2026 22:43 9,2 °C 12,8 °C 8,9 °C 11,8 °C 85 % 0 lf 12 cb 1010,6 hPa 0,0 mm 0,4 km/h (0 Bft) N-NW 329 ° 0 min 0,000 mm 0,0 UV-I 0 W/m² 6,8 °C 1,6 km/h (1 Bft) 95,83 %
06.05.2026 21:42 9,7 °C 13,3 °C 9,4 °C 11,8 °C 83 % 0 lf 12 cb 1010,2 hPa 0,0 mm 3,3 km/h (1 Bft) N 5 ° 0 min 0,000 mm 0,0 UV-I 0 W/m² 7,0 °C 4,8 km/h (1 Bft) 95,24 %
06.05.2026 20:41 10,1 °C 13,3 °C 10,0 °C 12,3 °C 80 % 0 lf 11 cb 1009,7 hPa 0,0 mm 2,7 km/h (1 Bft) N-NO 26 ° 0 min 0,026 mm 0,0 UV-I 0 W/m² 6,8 °C 3,2 km/h (1 Bft) 95,83 %
06.05.2026 19:41 10,6 °C 13,3 °C 10,6 °C 12,3 °C 77 % 0 lf 11 cb 1009,0 hPa 0,0 mm 5,7 km/h (2 Bft) O 87 ° 0 min 0,051 mm 0,0 UV-I 0 W/m² 6,7 °C 8,0 km/h (2 Bft) 95,83 %
06.05.2026 18:41 11,2 °C 13,3 °C 11,1 °C 12,3 °C 78 % 0 lf 11 cb 1008,7 hPa 0,0 mm 4,2 km/h (1 Bft) N-NO 28 ° 0 min 0,000 mm 2,0 UV-I 75 W/m² 7,5 °C 6,4 km/h (2 Bft) 100,00 %
06.05.2026 17:38 10,6 °C 13,3 °C 11,1 °C 12,3 °C 78 % 0 lf 11 cb 1008,7 hPa 0,0 mm 10,3 km/h (2 Bft) O 90 ° 0 min 0,076 mm 1,4 UV-I 77 W/m² 6,9 °C 19,3 km/h (3 Bft) 95,83 %
06.05.2026 16:34 10,3 °C 13,3 °C 11,1 °C 11,8 °C 86 % 1 lf 11 cb 1008,6 hPa 0,2 mm 8,7 km/h (2 Bft) N-NO 19 ° 0 min 0,000 mm 2,7 UV-I 169 W/m² 8,1 °C 19,3 km/h (3 Bft) 100,00 %
06.05.2026 15:32 9,8 °C 13,3 °C 10,6 °C 11,8 °C 90 % 15 lf 11 cb 1008,4 hPa 0,0 mm 9,4 km/h (2 Bft) NO 44 ° 0 min 0,076 mm 2,1 UV-I 131 W/m² 8,2 °C 16,1 km/h (3 Bft) 100,00 %
06.05.2026 14:31 9,7 °C 12,8 °C 10,6 °C 11,8 °C 90 % 15 lf 11 cb 1008,1 hPa 0,0 mm 4,5 km/h (1 Bft) N 5 ° 0 min 0,077 mm 2,2 UV-I 154 W/m² 8,1 °C 8,0 km/h (2 Bft) 91,67 %
06.05.2026 13:24 9,4 °C 12,8 °C 10,6 °C 11,8 °C 88 % 15 lf 12 cb 1007,8 hPa 0,0 mm 12,5 km/h (2 Bft) O-NO 58 ° 0 min 0,076 mm 1,7 UV-I 112 W/m² 7,5 °C 20,9 km/h (4 Bft) 95,83 %
06.05.2026 12:23 9,2 °C 12,8 °C 10,0 °C 11,8 °C 91 % 15 lf 12 cb 1007,5 hPa 0,0 mm 4,6 km/h (1 Bft) N-NO 20 ° 0 min 0,051 mm 2,1 UV-I 138 W/m² 7,8 °C 6,4 km/h (2 Bft) 95,83 %
06.05.2026 11:22 8,8 °C 12,8 °C 9,4 °C 11,8 °C 93 % 15 lf 12 cb 1007,3 hPa 0,2 mm 8,2 km/h (2 Bft) NO 42 ° 0 min 0,025 mm 1,5 UV-I 84 W/m² 7,7 °C 14,5 km/h (3 Bft) 100,00 %
06.05.2026 10:22 8,4 °C 12,2 °C 8,9 °C 11,8 °C 93 % 15 lf 12 cb 1007,1 hPa 0,2 mm 7,2 km/h (2 Bft) N-NO 17 ° 0 min 0,000 mm 1,6 UV-I 70 W/m² 7,3 °C 11,3 km/h (2 Bft) 91,30 %
06.05.2026 09:21 8,1 °C 12,8 °C 8,3 °C 11,8 °C 93 % 15 lf 12 cb 1006,9 hPa 0,2 mm 4,3 km/h (1 Bft) O 93 ° 0 min 0,000 mm 0,0 UV-I 0 W/m² 7,0 °C 9,7 km/h (2 Bft) 92,59 %
06.05.2026 08:21 7,9 °C 12,8 °C 7,8 °C 11,8 °C 93 % 15 lf 12 cb 1006,6 hPa 0,2 mm 5,9 km/h (2 Bft) O-SO 116 ° 0 min 0,000 mm 0,0 UV-I 0 W/m² 6,8 °C 9,7 km/h (2 Bft) 96,15 %
06.05.2026 07:20 8,3 °C 12,8 °C 8,3 °C 11,8 °C 94 % 15 lf 12 cb 1006,4 hPa 0,2 mm 6,8 km/h (2 Bft) O 101 ° 0 min 0,000 mm 0,0 UV-I 0 W/m² 7,4 °C 12,9 km/h (3 Bft) 91,30 %
06.05.2026 06:20 9,0 °C 12,8 °C 8,9 °C 11,8 °C 96 % 15 lf 11 cb 1006,2 hPa 0,2 mm 4,0 km/h (1 Bft) O-NO 59 ° 0 min 0,000 mm 0,0 UV-I 0 W/m² 8,4 °C 8,0 km/h (2 Bft) 91,30 %
06.05.2026 05:15 9,1 °C 12,8 °C 8,9 °C 12,3 °C 96 % 15 lf 11 cb 1006,3 hPa 0,2 mm 3,1 km/h (1 Bft) N-NO 19 ° 0 min 0,000 mm 0,0 UV-I 0 W/m² 8,5 °C 6,4 km/h (2 Bft) 95,65 %
06.05.2026 04:15 9,0 °C 13,3 °C 8,9 °C 12,3 °C 96 % 15 lf 11 cb 1006,7 hPa 0,4 mm 3,0 km/h (1 Bft) N 360 ° 0 min 0,000 mm 0,0 UV-I 0 W/m² 8,4 °C 6,4 km/h (2 Bft) 91,67 %
06.05.2026 03:13 9,3 °C 13,3 °C 8,9 °C 12,3 °C 96 % 15 lf 11 cb 1007,1 hPa 0,4 mm 6,6 km/h (2 Bft) N-NO 22 ° 0 min 0,000 mm 0,0 UV-I 0 W/m² 8,7 °C 11,3 km/h (2 Bft) 100,00 %
06.05.2026 02:13 9,2 °C 13,3 °C 8,9 °C 12,3 °C 95 % 15 lf 10 cb 1007,5 hPa 0,0 mm 7,3 km/h (2 Bft) N-NO 22 ° 0 min 0,000 mm 0,0 UV-I 0 W/m² 8,4 °C 12,9 km/h (3 Bft) 91,67 %
06.05.2026 01:13 9,1 °C 13,9 °C 8,9 °C 12,9 °C 95 % 15 lf 10 cb 1007,9 hPa 0,0 mm 5,1 km/h (1 Bft) N 351 ° 0 min 0,000 mm 0,0 UV-I 0 W/m² 8,3 °C 8,0 km/h (2 Bft) 95,45 %
06.05.2026 00:13 9,3 °C 13,9 °C 9,4 °C 12,9 °C 94 % 15 lf 10 cb 1008,2 hPa 0,0 mm 8,9 km/h (2 Bft) N-NO 19 ° 0 min 0,000 mm 0,0 UV-I 0 W/m² 8,4 °C 16,1 km/h (3 Bft) 100,00 %
06.05.2026 00:00 9,2 °C 13,9 °C 9,4 °C 12,9 °C 94 % 15 lf 10 cb 1008,3 hPa 0,0 mm 8,4 km/h (2 Bft) N-NW 348 ° 0 min 0,000 mm 0,0 UV-I 0 W/m² 8,3 °C 16,1 km/h (3 Bft) 100,00 %
_ Min-Zeit 09:01 11:01 09:09 23:43 19:03 23:43 02:19 06:34 - 23:24 - - - - - - 17:53 23:24 02:30
Minimum _ 7,8 °C 12,2 °C 7,8 °C 11,8 °C 75 % 0 lf 10 cb 1006,2 hPa - 0,0 km/h (0 Bft) - - - - - - 6,3 °C 0,0 km/h (0 Bft) 77,27 %
_ Max-Zeit 18:50 01:22 18:51 02:04 06:31 16:14 23:43 23:43 15:41 17:44 - - 23:43 14:02 16:19 16:18 03:29 17:44 23:43
Maximum _ 11,3 °C 13,9 °C 11,7 °C 12,9 °C 96 % 15 lf 12 cb 1010,8 hPa 0,2 mm 20,1 km/h
O-NO (4 Bft)
- - 0 min 0,077 mm 3,4 UV-I 207 W/m² 8,8 °C 32,2 km/h
O-NO (5 Bft)
100,00 %
Durchschnitt _ 9,3 °C 13,0 °C 9,5 °C 12,1 °C 89 % 10 lf 11 cb 1008,0 hPa #2,4 mm 6,2 km/h (2 Bft) N-NO - #0 min. #0,610 mm 2,0 UV-I 109 W/m² 7,6 °C 10,9 km/h (2 Bft) 96,52 %
© 2006-2026 Nordhorn-Wetter.com